Skip Navigation LinksHome page > Weather > Current weather Skip Navigation Links

Current Weather

Jakutsk, Russia

For information only: do not use for flight planning or navigation.
Latest weather
Observation time Saturday, November 1, 2014 4:00 PM JST
Local time Saturday, November 1, 2014 4:23 PM JST
Flight conditions Marginal Visual Meteorological Conditions
Winds
Wind direction North (350°)
Wind speed 4 mph
Visibility 6.2 mi.
Present weather light snow
Sky condition
Ceiling 2,200 ft. broken clouds
Cloud layer broken clouds 2,200 ft.
Cloud layer overcast 20,000 ft.
Temperature 3°F
Dewpoint 0°F
Altimeter 29.85 in.Hg
Precipitation
QF 4:29 AM
Derived measurements
Relative humidity 84%
Wind chill -6°F
Density altitude -3488 ft.
Remarks
No significant changes expected in the next two hours.
METAR UEEE 010700Z 35002MPS 9999 -SN BKN022 OVC200 M16/M18 Q1011 NOSIG RMK QFE749 23490145

Settings

Location code

InnerDrive.Weather 4.0.5399.0 Release CLR 4.0.30319.34014
Copyright ©2014 Inner Drive Technology. All rights reserved. Portions Copyright ©1986-2014 David Braverman.

Find weather

Site navigation


Skip Navigation Links

Place info

Page info

PayPal - The safer, easier way to pay online!

Return home.

Copyright ©2014 Inner Drive Technology. Purveyors of fine, hand-crafted computer software. Page printed 2014-11-01T07:23:22 UTC.